createdAt,value
2023-03-01T00:02:27.278Z,102545.95
2023-03-01T00:05:33.110Z,102553.21
2023-03-01T00:08:49.635Z,102546.61
2023-03-01T00:11:42.991Z,102539.00
2023-03-01T00:14:29.732Z,102535.91
2023-03-01T00:17:33.785Z,102532.04
2023-03-01T00:20:44.446Z,102529.89
2023-03-01T00:24:33.686Z,102531.64
2023-03-01T00:27:19.904Z,102534.17
2023-03-01T00:30:14.433Z,102536.09
2023-03-01T00:33:08.581Z,102537.48
2023-03-01T00:36:07.700Z,102531.83
2023-03-01T00:39:20.889Z,102526.64
2023-03-01T00:42:17.802Z,102521.15
2023-03-01T00:45:16.683Z,102514.73
2023-03-01T00:48:15.031Z,102512.82
2023-03-01T00:51:52.866Z,102505.97
2023-03-01T00:55:40.508Z,102501.14
2023-03-01T00:59:22.146Z,102497.98
2023-03-01T01:03:03.555Z,102499.09
2023-03-01T01:06:34.383Z,102498.73
2023-03-01T01:09:57.946Z,102500.49
2023-03-01T01:13:19.713Z,102495.02
2023-03-01T01:16:25.844Z,102497.02
2023-03-01T01:19:25.816Z,102497.21
2023-03-01T01:23:00.436Z,102493.17
2023-03-01T01:26:15.450Z,102494.54
2023-03-01T01:29:16.556Z,102495.20
2023-03-01T01:32:38.323Z,102494.31
2023-03-01T01:35:53.658Z,102497.42
2023-03-01T01:39:00.802Z,102502.56
2023-03-01T01:42:29.522Z,102491.91
2023-03-01T01:45:56.534Z,102494.88
2023-03-01T01:49:12.360Z,102497.69
2023-03-01T01:52:53.098Z,102501.27
2023-03-01T01:56:16.342Z,102494.89
2023-03-01T01:59:25.407Z,102488.58
2023-03-01T02:02:32.173Z,102485.89
2023-03-01T02:06:14.364Z,102476.20
2023-03-01T02:09:56.756Z,102472.57
2023-03-01T02:13:35.691Z,102462.70
2023-03-01T02:17:02.890Z,102459.40
2023-03-01T02:20:30.316Z,102461.33
2023-03-01T02:23:19.404Z,102458.14
2023-03-01T02:26:54.318Z,102455.19
2023-03-01T02:29:45.240Z,102449.66
2023-03-01T02:32:49.068Z,102448.05
2023-03-01T02:36:32.400Z,102443.87
2023-03-01T02:39:31.116Z,102431.66
2023-03-01T02:42:45.580Z,102437.20
2023-03-01T02:45:36.764Z,102431.14
2023-03-01T02:49:09.814Z,102431.34
2023-03-01T02:52:42.247Z,102428.30
2023-03-01T02:56:20.155Z,102428.77
2023-03-01T03:00:09.289Z,102429.08
2023-03-01T03:03:31.265Z,102424.41
2023-03-01T03:06:50.948Z,102418.38
2023-03-01T03:10:06.227Z,102417.95
2023-03-01T03:13:14.002Z,102414.94
2023-03-01T03:16:29.660Z,102422.48
2023-03-01T03:19:59.701Z,102425.00
2023-03-01T03:23:42.673Z,102425.43
2023-03-01T03:26:50.557Z,102410.38
2023-03-01T03:30:23.659Z,102407.49
2023-03-01T03:33:14.956Z,102412.91
2023-03-01T03:36:27.457Z,102413.46
2023-03-01T03:39:56.248Z,102409.97
2023-03-01T03:42:51.236Z,102404.78
2023-03-01T03:45:36.860Z,102404.52
2023-03-01T03:48:38.520Z,102404.41
2023-03-01T03:52:12.736Z,102400.66
2023-03-01T03:55:10.402Z,102390.46
2023-03-01T03:58:45.739Z,102395.24
2023-03-01T04:02:14.967Z,102404.26
2023-03-01T04:05:32.673Z,102403.83
2023-03-01T04:08:37.758Z,102405.75
2023-03-01T04:11:47.517Z,102405.99
2023-03-01T04:14:39.836Z,102408.56
2023-03-01T04:17:46.001Z,102406.92
2023-03-01T04:21:12.628Z,102410.66
2023-03-01T04:24:24.582Z,102402.05
2023-03-01T04:27:38.466Z,102405.20
2023-03-01T04:31:03.879Z,102400.36
2023-03-01T04:34:18.846Z,102401.69
2023-03-01T04:37:20.115Z,102397.74
2023-03-01T04:40:29.878Z,102404.23
2023-03-01T04:43:46.752Z,102401.67
2023-03-01T04:47:00.760Z,102402.33
2023-03-01T04:50:23.945Z,102409.57
2023-03-01T04:53:49.163Z,102406.85
2023-03-01T04:57:38.214Z,102409.52
2023-03-01T05:00:37.368Z,102407.30
2023-03-01T05:03:35.130Z,102408.30
2023-03-01T05:06:32.987Z,102401.08
2023-03-01T05:09:57.286Z,102399.42
2023-03-01T05:13:36.260Z,102389.85
2023-03-01T05:16:38.167Z,102384.56
2023-03-01T05:20:00.625Z,102376.27
2023-03-01T05:23:07.317Z,102380.25
2023-03-01T05:26:31.090Z,102379.92
2023-03-01T05:29:21.251Z,102385.25
2023-03-01T05:32:56.696Z,102385.48
2023-03-01T05:36:12.329Z,102384.95
2023-03-01T05:39:08.257Z,102381.60
2023-03-01T05:42:33.054Z,102388.63
2023-03-01T05:45:57.943Z,102392.98
2023-03-01T05:49:13.677Z,102392.19
2023-03-01T05:52:23.916Z,102405.55
2023-03-01T05:55:41.142Z,102406.40
2023-03-01T05:59:19.486Z,102409.23
2023-03-01T06:02:10.610Z,102409.27
2023-03-01T06:05:08.841Z,102411.52
2023-03-01T06:08:15.520Z,102410.58
2023-03-01T06:11:35.896Z,102414.19
2023-03-01T06:15:11.364Z,102417.80
2023-03-01T06:17:58.936Z,102413.09
2023-03-01T06:21:25.989Z,102409.05
2023-03-01T06:25:01.512Z,102411.92
2023-03-01T06:28:09.497Z,102407.27
2023-03-01T06:31:26.262Z,102401.72
2023-03-01T06:34:46.236Z,102394.95
2023-03-01T06:38:19.020Z,102384.27
2023-03-01T06:42:00.170Z,102384.05
2023-03-01T06:45:42.168Z,102387.41
2023-03-01T06:48:58.685Z,102389.17
2023-03-01T06:52:19.071Z,102383.74
2023-03-01T06:55:40.989Z,102382.48
2023-03-01T06:58:49.091Z,102375.23
2023-03-01T07:02:17.498Z,102373.30
2023-03-01T07:05:58.170Z,102377.30
2023-03-01T07:09:20.761Z,102374.90
2023-03-01T07:12:41.581Z,102382.56
2023-03-01T07:16:29.548Z,102379.44
2023-03-01T07:19:52.465Z,102379.88
2023-03-01T07:23:11.231Z,102385.86
2023-03-01T07:26:46.208Z,102385.25
2023-03-01T07:30:35.658Z,102378.04
2023-03-01T07:34:19.858Z,102376.00
2023-03-01T07:37:55.665Z,102377.11
2023-03-01T07:41:45.345Z,102378.50
2023-03-01T07:45:34.806Z,102377.12
2023-03-01T07:49:09.862Z,102379.10
2023-03-01T07:52:48.398Z,102382.48
2023-03-01T07:56:43.263Z,102389.40
2023-03-01T08:00:32.420Z,102384.48
2023-03-01T08:08:48.697Z,102387.96
2023-03-01T08:12:31.113Z,102387.59
2023-03-01T08:16:12.728Z,102390.55
2023-03-01T08:20:01.780Z,102384.68
2023-03-01T08:23:43.842Z,102384.44
2023-03-01T08:27:05.275Z,102388.78
2023-03-01T08:30:54.607Z,102387.91
2023-03-01T08:34:37.184Z,102393.95
2023-03-01T08:38:13.549Z,102393.67
2023-03-01T08:41:48.310Z,102390.80
2023-03-01T08:45:37.515Z,102385.25
2023-03-01T08:49:26.899Z,102391.36
2023-03-01T08:53:17.378Z,102379.93
2023-03-01T08:57:06.193Z,102373.77
2023-03-01T09:00:59.285Z,102369.88
2023-03-01T09:04:24.452Z,102363.78
2023-03-01T09:09:02.479Z,102355.19
2023-03-01T09:12:34.709Z,102344.35
2023-03-01T09:17:01.379Z,102348.39
2023-03-01T09:21:40.139Z,102347.02
2023-03-01T09:26:00.740Z,102331.94
2023-03-01T09:30:37.993Z,102328.87
2023-03-01T09:35:23.493Z,102316.52
2023-03-01T09:39:52.882Z,102310.41
2023-03-01T09:44:25.250Z,102304.79
2023-03-01T09:48:40.025Z,102304.05
2023-03-01T09:52:41.126Z,102301.80
2023-03-01T09:56:37.533Z,102308.38
2023-03-01T10:00:37.945Z,102307.39
2023-03-01T10:04:37.224Z,102305.39
2023-03-01T10:08:41.557Z,102304.30
2023-03-01T10:12:32.464Z,102299.11
2023-03-01T10:16:26.932Z,102295.75
2023-03-01T10:20:15.478Z,102291.59
2023-03-01T10:23:56.029Z,102295.77
2023-03-01T10:27:48.204Z,102300.96
2023-03-01T10:31:30.603Z,102300.10
2023-03-01T10:35:21.849Z,102293.98
2023-03-01T10:39:10.966Z,102294.70
2023-03-01T10:43:05.934Z,102289.52
2023-03-01T10:47:07.318Z,102283.42
2023-03-01T10:51:00.654Z,102276.09
2023-03-01T10:54:48.204Z,102278.58
2023-03-01T10:58:49.786Z,102273.49
2023-03-01T11:02:38.995Z,102257.17
2023-03-01T11:06:36.823Z,102256.09
2023-03-01T11:10:15.416Z,102245.23
2023-03-01T11:14:26.477Z,102243.71
2023-03-01T11:18:09.008Z,102241.79
2023-03-01T11:22:02.124Z,102233.08
2023-03-01T11:25:44.617Z,102238.70
2023-03-01T11:29:14.546Z,102237.61
2023-03-01T11:33:04.868Z,102222.66
2023-03-01T11:37:11.825Z,102220.23
2023-03-01T11:41:06.894Z,102214.36
2023-03-01T11:44:55.958Z,102209.94
2023-03-01T11:48:49.820Z,102203.91
2023-03-01T11:52:35.761Z,102207.25
2023-03-01T11:56:16.140Z,102205.46
2023-03-01T12:00:16.267Z,102201.64
2023-03-01T12:04:03.951Z,102195.96
2023-03-01T12:08:07.819Z,102193.44
2023-03-01T12:11:57.196Z,102193.66
2023-03-01T12:15:47.216Z,102187.77
2023-03-01T12:19:35.546Z,102183.05
2023-03-01T12:23:45.741Z,102176.33
2023-03-01T12:27:40.849Z,102162.95
2023-03-01T12:31:28.228Z,102163.00
2023-03-01T12:35:26.404Z,102157.27
2023-03-01T12:39:20.410Z,102158.54
2023-03-01T12:43:21.390Z,102151.33
2023-03-01T12:47:15.281Z,102152.06
2023-03-01T12:50:56.293Z,102149.02
2023-03-01T12:54:54.207Z,102141.77
2023-03-01T12:58:50.198Z,102137.63
2023-03-01T13:03:02.033Z,102131.05
2023-03-01T13:07:01.563Z,102122.64
2023-03-01T13:10:53.526Z,102123.64
2023-03-01T13:14:40.830Z,102126.49
2023-03-01T13:26:48.489Z,102123.28
2023-03-01T13:30:54.886Z,102116.75
2023-03-01T13:50:41.720Z,102090.89
2023-03-01T13:55:15.131Z,102077.17
2023-03-01T13:59:58.970Z,102075.39
2023-03-01T14:04:27.379Z,102072.00
2023-03-01T14:09:02.666Z,102075.49
2023-03-01T14:15:29.599Z,102069.16
2023-03-01T14:18:29.513Z,102071.29
2023-03-01T14:27:17.066Z,102073.48
2023-03-01T14:31:19.528Z,102072.42
2023-03-01T14:35:23.243Z,102066.63
2023-03-01T14:39:25.986Z,102067.37
2023-03-01T14:43:09.418Z,102057.46
2023-03-01T14:47:19.399Z,102063.59
2023-03-01T14:51:40.071Z,102059.59
2023-03-01T14:55:54.492Z,102053.13
2023-03-01T15:00:24.669Z,102048.69
2023-03-01T15:08:43.532Z,102051.27
2023-03-01T15:12:34.569Z,102045.91
2023-03-01T15:16:26.675Z,102049.70
2023-03-01T15:20:06.726Z,102052.64
2023-03-01T15:24:00.013Z,102048.31
2023-03-01T15:27:43.364Z,102055.05
2023-03-01T15:31:35.926Z,102047.95
2023-03-01T15:35:26.328Z,102051.44
2023-03-01T15:39:31.280Z,102052.97
2023-03-01T15:43:36.810Z,102047.51
2023-03-01T15:47:30.292Z,102051.90
2023-03-01T15:51:23.368Z,102046.10
2023-03-01T15:55:22.052Z,102042.64
2023-03-01T15:59:24.431Z,102049.50
2023-03-01T16:03:14.910Z,102046.01
2023-03-01T16:11:00.467Z,102040.56
2023-03-01T16:14:49.051Z,102039.40
2023-03-01T16:25:32.108Z,102037.17
2023-03-01T16:29:23.611Z,102035.27
2023-03-01T16:33:27.376Z,102044.27
2023-03-01T16:37:24.952Z,102035.84
2023-03-01T16:41:18.861Z,102039.05
2023-03-01T16:45:22.791Z,102041.61
2023-03-01T16:49:14.227Z,102039.70
2023-03-01T16:52:57.549Z,102044.84
2023-03-01T16:56:50.479Z,102043.96
2023-03-01T17:01:05.416Z,102051.64
2023-03-01T17:04:55.220Z,102046.98
2023-03-01T17:08:44.578Z,102044.48
2023-03-01T17:12:34.035Z,102047.00
2023-03-01T17:16:24.722Z,102050.34
2023-03-01T17:20:05.619Z,102047.27
2023-03-01T17:23:55.036Z,102053.05
2023-03-01T17:27:37.434Z,102052.67
2023-03-01T17:31:25.743Z,102052.40
2023-03-01T17:35:15.493Z,102053.82
2023-03-01T17:38:51.452Z,102051.97
2023-03-01T17:42:31.767Z,102051.77
2023-03-01T17:46:18.541Z,102054.05
2023-03-01T17:49:57.092Z,102058.13
2023-03-01T17:53:48.464Z,102058.83
2023-03-01T17:57:24.534Z,102052.41
2023-03-01T18:00:40.643Z,102052.61
2023-03-01T18:04:23.132Z,102049.80
2023-03-01T18:07:58.973Z,102050.78
2023-03-01T18:11:32.242Z,102050.84
2023-03-01T18:15:22.851Z,102046.44
2023-03-01T18:19:12.865Z,102042.50
2023-03-01T18:23:04.989Z,102043.46
2023-03-01T18:26:54.058Z,102045.77
2023-03-01T18:30:15.881Z,102052.66
2023-03-01T18:33:49.180Z,102049.17
2023-03-01T18:37:30.547Z,102054.44
2023-03-01T18:41:12.628Z,102057.26
2023-03-01T18:44:50.263Z,102052.66
2023-03-01T18:48:42.259Z,102049.54
2023-03-01T18:52:33.799Z,102047.00
2023-03-01T18:56:46.147Z,102046.37
2023-03-01T19:00:37.459Z,102044.83
2023-03-01T19:04:12.840Z,102051.23
2023-03-01T19:07:42.190Z,102058.47
2023-03-01T19:11:36.702Z,102058.19
2023-03-01T19:15:18.289Z,102055.55
2023-03-01T19:19:01.311Z,102061.60
2023-03-01T19:22:42.478Z,102072.45
2023-03-01T19:26:22.567Z,102080.96
2023-03-01T19:30:13.429Z,102082.95
2023-03-01T19:34:11.599Z,102084.36
2023-03-01T19:38:06.524Z,102087.60
2023-03-01T19:41:47.017Z,102088.65
2023-03-01T19:45:33.988Z,102096.38
2023-03-01T19:49:26.896Z,102102.11
2023-03-01T19:52:57.455Z,102103.84
2023-03-01T19:56:28.542Z,102106.48
2023-03-01T19:59:56.534Z,102107.20
2023-03-01T20:03:31.812Z,102108.09
2023-03-01T20:07:15.428Z,102100.11
2023-03-01T20:10:26.868Z,102093.90
2023-03-01T20:14:07.090Z,102091.92
2023-03-01T20:17:28.570Z,102096.66
2023-03-01T20:21:00.464Z,102097.91
2023-03-01T20:24:32.028Z,102109.07
2023-03-01T20:27:56.355Z,102103.62
2023-03-01T20:31:50.218Z,102108.92
2023-03-01T20:35:17.204Z,102108.50
2023-03-01T20:39:12.463Z,102109.73
2023-03-01T20:43:24.181Z,102110.88
2023-03-01T20:47:19.787Z,102113.17
2023-03-01T20:51:10.461Z,102116.58
2023-03-01T20:55:01.789Z,102114.08
2023-03-01T20:58:51.580Z,102112.42
2023-03-01T21:02:42.973Z,102107.11
2023-03-01T21:06:36.540Z,102105.46
2023-03-01T21:10:26.830Z,102101.08
2023-03-01T21:14:15.972Z,102092.77
2023-03-01T21:18:06.328Z,102094.01
2023-03-01T21:22:00.639Z,102084.28
2023-03-01T21:25:53.774Z,102088.92
2023-03-01T21:29:44.651Z,102091.71
2023-03-01T21:33:35.370Z,102091.73
2023-03-01T21:37:45.458Z,102086.52
2023-03-01T21:41:39.379Z,102079.98
2023-03-01T21:45:31.373Z,102077.08
2023-03-01T21:49:41.672Z,102083.52
2023-03-01T21:53:26.371Z,102082.70
2023-03-01T21:57:36.053Z,102085.08
2023-03-01T22:01:26.832Z,102079.42
2023-03-01T22:05:36.832Z,102079.21
2023-03-01T22:09:28.428Z,102073.22
2023-03-01T22:13:27.194Z,102073.66
2023-03-01T22:17:18.702Z,102073.17
2023-03-01T22:21:12.240Z,102073.00
2023-03-01T22:25:43.803Z,102074.59
2023-03-01T22:34:33.768Z,102074.09
2023-03-01T22:39:08.166Z,102071.26
2023-03-01T22:43:42.437Z,102070.04
2023-03-01T22:48:13.916Z,102066.03
2023-03-01T22:52:30.871Z,102058.95
2023-03-01T22:57:02.909Z,102056.49
2023-03-01T23:01:14.621Z,102056.88
2023-03-01T23:05:43.776Z,102052.65
2023-03-01T23:10:18.963Z,102048.77
2023-03-01T23:14:48.241Z,102050.23
2023-03-01T23:19:19.510Z,102054.98
2023-03-01T23:26:54.558Z,102058.52
2023-03-01T23:31:37.485Z,102065.74
2023-03-01T23:36:05.230Z,102063.63
2023-03-01T23:40:33.248Z,102067.33
2023-03-01T23:45:04.847Z,102063.10
2023-03-01T23:49:33.918Z,102065.91
2023-03-01T23:54:07.326Z,102066.57
2023-03-01T23:58:34.789Z,102059.38
